Etusivu
METAR-TAF:

METAR-TAF

Lentoasemat :

Tšita, Venäjä

Leveyspiiri: 52-05N, Pituuspiiri: 113-29E, korkeus merenpinnasta: 685 m

Tämänhetkinen sää

Tämä raportti tehtiin 32 minuuttia sitten, kello 23.30 UTC
Tuuli 2 kn idästä/koillisesta
Lämpötila 18°C
Kosteus 64%
Ilmanpaine 1010 hPa
Näkyvyys 10 km tai enemmän

METAR: UIAA 232330Z 06001MPS 9999 NSC 18/11 Q1010 R29/CLRD70 NOSIG RMK QFE699/0932

Aika: 09:02 (00:02 UTC)

Sääennuste

Tämä raportti tehtiin 7 tuntia ja 2 minuuttia sitten, kello 17.00 UTC
Ennuste voimassa 23. päivästä klo 18 UTC - 24. päivään klo 18 UTC
Tuuli 2 kn eri suunnista
Näkyvyys 10 km tai enemmän
Hajonneita pilviä 3000 ft:n korkeudessa, Cumulonimbus.
Ajoittain
24. päivästä klo 03 UTC - 24. päivään klo 15 UTC
Tuuli 12 kn eri suunnista
ukkosmyrsky, heikkoa sadetta

TAF: UIAA 231700Z 2318/2418 VRB01MPS 9999 BKN030CB TEMPO 2403/2415 VRB06MPS -TSRA

Säähavainnot ja -ennusteet yli 4000 lentoasemalta (METAR- ja TAF-raportit).

Käytössä olevat sääasemat on merkitty karttaan keltaisilla ja punaisilla pisteillä.

Aseta hiiri pisteen päälle nähdäksesi sääaseman nimen.

Klikkaa sitten nähdäksesi säähavainnot ja -ennusteet.

Kartan vaihtaminen: klikkaa mustalla rastilla varustettuja vihreitä pisteitä, niin voit zoomata sisään; viivalla varustettua vihreää pistettä, niin voit zoomata ulos tai vihreitä nuolia, niin pääset viereisille kartoille.


METAR-TAF: